Nf67 Femarnbaelt II — OU3102 — position and weather

sailwx.info

Track history (hours):
 
Tides and Currents Weather Stations Pressure Air Temp Water Temp Dewpoint Dewpoint Depression Visibility Wind Speed Wind Dir Waves Ship Positions

Nf67 Femarnbaelt II

Last reported at 2017-Apr-27 09:44 UTC. Time now 2017-Apr-29 11:27 UTC.
Position N 57°27' E 009°34'.

Length 15 m.

Type: Fishing. MMSI: 219012459.

Date/timePositionNaut miles runAvg speedWind from/ knotsBaromVisibWave heightAir tempDewpointWater temp
2017-Apr-27 09:44N 57°27' E 009°34'1 2.4
2017-Apr-27 09:30N 57°26' E 009°34'1 2.5
2017-Apr-27 08:59N 57°25' E 009°32'1 2.6
2017-Apr-27 08:30N 57°25' E 009°30'2 2.5
2017-Apr-27 07:53N 57°25' E 009°32'7 0.4
2017-Apr-26 15:26N 57°29' E 009°21'1 2.4
2017-Apr-26 15:00N 57°30' E 009°22'1 2.6
2017-Apr-26 14:30N 57°31' E 009°23'  
2017-Apr-23 22:34N 57°36' E 009°57'0 0.0
2017-Apr-23 22:28N 57°36' E 009°57'0 0.0
2017-Apr-23 21:58N 57°36' E 009°57'0 0.0
2017-Apr-23 21:25N 57°36' E 009°57'0 0.0
2017-Apr-23 20:55N 57°36' E 009°57'0 0.0
2017-Apr-23 05:01N 57°36' E 009°57'0 0.0
2017-Apr-23 04:55N 57°36' E 009°57'0 0.0
2017-Apr-23 04:28N 57°36' E 009°57'0 0.0
2017-Apr-23 03:58N 57°36' E 009°57'0 0.0
2017-Apr-23 03:28N 57°36' E 009°57'  
2017-Apr-20 08:04N 57°36' E 009°57'0 0.0
2017-Apr-20 07:58N 57°36' E 009°57'0 0.0
2017-Apr-20 07:28N 57°36' E 009°57'0 0.0
2017-Apr-20 06:58N 57°36' E 009°57'0 0.0
2017-Apr-20 06:28N 57°36' E 009°57'0 0.0
2017-Apr-19 16:48N 57°36' E 009°58'2 4.7
2017-Apr-19 16:28N 57°36' E 009°55'3 6.4
2017-Apr-19 15:58N 57°35' E 009°49'  
Track history (hours):
 
Tides and Currents Weather Stations Pressure Air Temp Water Temp Dewpoint Dewpoint Depression Visibility Wind Speed Wind Dir Waves Ship Positions

Nf67 Femarnbaelt II

Last reported at 2017-Apr-27 09:44 UTC. Time now 2017-Apr-29 11:27 UTC.
Position N 57°27' E 009°34'.

Length 15 m.

Type: Fishing. MMSI: 219012459.

Date/timePositionNaut miles runAvg speedWind from/ knotsBaromVisibWave heightAir tempDewpointWater temp
2017-Apr-27 09:44N 57°27' E 009°34'1 2.4
2017-Apr-27 09:30N 57°26' E 009°34'1 2.5
2017-Apr-27 08:59N 57°25' E 009°32'1 2.6
2017-Apr-27 08:30N 57°25' E 009°30'2 2.5
2017-Apr-27 07:53N 57°25' E 009°32'7 0.4
2017-Apr-26 15:26N 57°29' E 009°21'1 2.4
2017-Apr-26 15:00N 57°30' E 009°22'1 2.6
2017-Apr-26 14:30N 57°31' E 009°23'  
2017-Apr-23 22:34N 57°36' E 009°57'0 0.0
2017-Apr-23 22:28N 57°36' E 009°57'0 0.0
2017-Apr-23 21:58N 57°36' E 009°57'0 0.0
2017-Apr-23 21:25N 57°36' E 009°57'0 0.0
2017-Apr-23 20:55N 57°36' E 009°57'0 0.0
2017-Apr-23 05:01N 57°36' E 009°57'0 0.0
2017-Apr-23 04:55N 57°36' E 009°57'0 0.0
2017-Apr-23 04:28N 57°36' E 009°57'0 0.0
2017-Apr-23 03:58N 57°36' E 009°57'0 0.0
2017-Apr-23 03:28N 57°36' E 009°57'  
2017-Apr-20 08:04N 57°36' E 009°57'0 0.0
2017-Apr-20 07:58N 57°36' E 009°57'0 0.0
2017-Apr-20 07:28N 57°36' E 009°57'0 0.0
2017-Apr-20 06:58N 57°36' E 009°57'0 0.0
2017-Apr-20 06:28N 57°36' E 009°57'0 0.0
2017-Apr-19 16:48N 57°36' E 009°58'2 4.7
2017-Apr-19 16:28N 57°36' E 009°55'3 6.4
2017-Apr-19 15:58N 57°35' E 009°49'  

Dump ship's entire track history